sensor_id;sensor_type;location;lat;lon;timestamp;pressure;altitude;pressure_sealevel;temperature;humidity
76794;BME280;65745;50.278;18.192;2023-05-14T00:01:43;100128.09;;;10.73;59.25
76794;BME280;65745;50.278;18.192;2023-05-14T00:04:17;100122.05;;;10.72;58.98
76794;BME280;65745;50.278;18.192;2023-05-14T00:06:50;100119.06;;;10.69;59.48
76794;BME280;65745;50.278;18.192;2023-05-14T00:09:22;100120.40;;;10.67;59.23
76794;BME280;65745;50.278;18.192;2023-05-14T00:11:54;100119.98;;;10.64;58.91
76794;BME280;65745;50.278;18.192;2023-05-14T00:14:26;100118.17;;;10.61;59.74
76794;BME280;65745;50.278;18.192;2023-05-14T00:16:59;100115.96;;;10.54;59.69
76794;BME280;65745;50.278;18.192;2023-05-14T00:19:31;100112.95;;;10.51;59.70
76794;BME280;65745;50.278;18.192;2023-05-14T00:22:03;100114.23;;;10.46;59.88
76794;BME280;65745;50.278;18.192;2023-05-14T00:24:35;100109.93;;;10.40;59.69
76794;BME280;65745;50.278;18.192;2023-05-14T00:27:08;100110.90;;;10.30;59.96
76794;BME280;65745;50.278;18.192;2023-05-14T00:29:40;100107.10;;;10.22;59.66
76794;BME280;65745;50.278;18.192;2023-05-14T00:32:12;100107.05;;;10.14;60.06
76794;BME280;65745;50.278;18.192;2023-05-14T00:34:44;100112.08;;;10.09;59.53
76794;BME280;65745;50.278;18.192;2023-05-14T00:37:16;100113.78;;;10.02;59.49
76794;BME280;65745;50.278;18.192;2023-05-14T00:39:49;100117.40;;;9.89;60.28
76794;BME280;65745;50.278;18.192;2023-05-14T00:42:21;100117.26;;;9.77;60.38
76794;BME280;65745;50.278;18.192;2023-05-14T00:44:53;100118.43;;;9.69;60.56
76794;BME280;65745;50.278;18.192;2023-05-14T00:47:25;100116.59;;;9.65;60.26
76794;BME280;65745;50.278;18.192;2023-05-14T00:49:57;100116.23;;;9.64;60.89
76794;BME280;65745;50.278;18.192;2023-05-14T00:52:30;100122.16;;;9.61;61.06
76794;BME280;65745;50.278;18.192;2023-05-14T00:55:03;100121.56;;;9.52;62.74
76794;BME280;65745;50.278;18.192;2023-05-14T00:57:37;100123.25;;;9.51;61.77
76794;BME280;65745;50.278;18.192;2023-05-14T01:00:10;100124.73;;;9.55;61.25
76794;BME280;65745;50.278;18.192;2023-05-14T01:02:43;100126.30;;;9.55;61.09
76794;BME280;65745;50.278;18.192;2023-05-14T01:05:15;100128.84;;;9.42;63.40
76794;BME280;65745;50.278;18.192;2023-05-14T01:07:56;100131.66;;;9.38;61.85
76794;BME280;65745;50.278;18.192;2023-05-14T01:10:35;100132.34;;;9.32;62.91
76794;BME280;65745;50.278;18.192;2023-05-14T01:13:14;100130.05;;;9.24;62.75
76794;BME280;65745;50.278;18.192;2023-05-14T01:15:50;100132.25;;;9.22;62.12
76794;BME280;65745;50.278;18.192;2023-05-14T01:18:25;100129.01;;;9.18;61.54
76794;BME280;65745;50.278;18.192;2023-05-14T01:20:59;100131.77;;;9.18;61.72
76794;BME280;65745;50.278;18.192;2023-05-14T01:23:32;100136.08;;;9.12;61.48
76794;BME280;65745;50.278;18.192;2023-05-14T01:26:05;100133.66;;;9.06;61.27
76794;BME280;65745;50.278;18.192;2023-05-14T01:28:38;100133.60;;;8.98;61.90
76794;BME280;65745;50.278;18.192;2023-05-14T01:31:13;100124.65;;;8.86;62.12
76794;BME280;65745;50.278;18.192;2023-05-14T01:33:49;100118.48;;;8.75;63.36
76794;BME280;65745;50.278;18.192;2023-05-14T01:36:23;100118.91;;;8.73;62.80
76794;BME280;65745;50.278;18.192;2023-05-14T01:38:57;100117.71;;;8.73;62.35
76794;BME280;65745;50.278;18.192;2023-05-14T01:41:30;100121.50;;;8.73;63.23
76794;BME280;65745;50.278;18.192;2023-05-14T01:44:04;100122.95;;;8.76;62.86
76794;BME280;65745;50.278;18.192;2023-05-14T01:46:36;100126.83;;;8.84;63.09
76794;BME280;65745;50.278;18.192;2023-05-14T01:49:08;100124.30;;;8.85;62.94
76794;BME280;65745;50.278;18.192;2023-05-14T01:51:40;100122.37;;;8.85;62.52
76794;BME280;65745;50.278;18.192;2023-05-14T01:54:12;100116.65;;;8.77;62.62
76794;BME280;65745;50.278;18.192;2023-05-14T01:56:44;100115.45;;;8.72;63.91
76794;BME280;65745;50.278;18.192;2023-05-14T01:59:17;100113.63;;;8.69;63.82
76794;BME280;65745;50.278;18.192;2023-05-14T02:01:49;100105.91;;;8.63;62.83
76794;BME280;65745;50.278;18.192;2023-05-14T02:04:21;100107.95;;;8.63;62.51
76794;BME280;65745;50.278;18.192;2023-05-14T02:06:54;100109.72;;;8.59;63.58
76794;BME280;65745;50.278;18.192;2023-05-14T02:09:27;100107.15;;;8.48;63.36
76794;BME280;65745;50.278;18.192;2023-05-14T02:12:01;100107.73;;;8.45;63.12
76794;BME280;65745;50.278;18.192;2023-05-14T02:14:33;100105.52;;;8.35;63.71
76794;BME280;65745;50.278;18.192;2023-05-14T02:17:05;100098.41;;;8.28;63.49
76794;BME280;65745;50.278;18.192;2023-05-14T02:19:38;100099.01;;;8.20;62.98
76794;BME280;65745;50.278;18.192;2023-05-14T02:22:10;100103.90;;;8.12;64.24
76794;BME280;65745;50.278;18.192;2023-05-14T02:24:42;100105.16;;;8.04;64.23
76794;BME280;65745;50.278;18.192;2023-05-14T02:27:14;100107.46;;;7.96;65.11
76794;BME280;65745;50.278;18.192;2023-05-14T02:29:46;100098.49;;;7.89;65.34
76794;BME280;65745;50.278;18.192;2023-05-14T02:32:18;100097.14;;;7.85;64.88
76794;BME280;65745;50.278;18.192;2023-05-14T02:34:50;100091.21;;;7.82;64.13
76794;BME280;65745;50.278;18.192;2023-05-14T02:37:22;100086.62;;;7.73;64.74
76794;BME280;65745;50.278;18.192;2023-05-14T02:39:54;100086.30;;;7.63;65.61
76794;BME280;65745;50.278;18.192;2023-05-14T02:42:26;100084.77;;;7.59;65.05
76794;BME280;65745;50.278;18.192;2023-05-14T02:44:59;100086.58;;;7.57;65.96
76794;BME280;65745;50.278;18.192;2023-05-14T02:47:31;100082.63;;;7.51;66.30
76794;BME280;65745;50.278;18.192;2023-05-14T02:50:09;100083.66;;;7.47;66.94
76794;BME280;65745;50.278;18.192;2023-05-14T02:52:41;100089.35;;;7.34;67.49
76794;BME280;65745;50.278;18.192;2023-05-14T02:55:13;100084.50;;;7.27;67.42
76794;BME280;65745;50.278;18.192;2023-05-14T02:57:45;100078.23;;;7.24;66.99
76794;BME280;65745;50.278;18.192;2023-05-14T03:00:18;100072.98;;;7.26;65.81
76794;BME280;65745;50.278;18.192;2023-05-14T03:02:52;100063.83;;;7.29;65.92
76794;BME280;65745;50.278;18.192;2023-05-14T03:05:24;100062.52;;;7.25;65.31
76794;BME280;65745;50.278;18.192;2023-05-14T03:07:57;100069.95;;;7.22;66.03
76794;BME280;65745;50.278;18.192;2023-05-14T03:10:29;100063.80;;;7.23;66.11
76794;BME280;65745;50.278;18.192;2023-05-14T03:13:02;100057.85;;;7.24;66.19
76794;BME280;65745;50.278;18.192;2023-05-14T03:15:34;100054.94;;;7.24;65.56
76794;BME280;65745;50.278;18.192;2023-05-14T03:18:06;100053.66;;;7.27;65.96
76794;BME280;65745;50.278;18.192;2023-05-14T03:20:38;100050.04;;;7.32;65.97
76794;BME280;65745;50.278;18.192;2023-05-14T03:23:11;100055.25;;;7.33;65.87
76794;BME280;65745;50.278;18.192;2023-05-14T03:25:44;100057.81;;;7.28;66.08
76794;BME280;65745;50.278;18.192;2023-05-14T03:28:16;100061.73;;;7.28;66.27
76794;BME280;65745;50.278;18.192;2023-05-14T03:30:48;100063.17;;;7.30;66.74
76794;BME280;65745;50.278;18.192;2023-05-14T03:33:21;100068.02;;;7.36;65.90
76794;BME280;65745;50.278;18.192;2023-05-14T03:35:53;100061.70;;;7.36;66.22
76794;BME280;65745;50.278;18.192;2023-05-14T03:38:25;100058.59;;;7.31;66.02
76794;BME280;65745;50.278;18.192;2023-05-14T03:40:58;100058.99;;;7.33;65.73
76794;BME280;65745;50.278;18.192;2023-05-14T03:43:30;100059.92;;;7.35;65.87
76794;BME280;65745;50.278;18.192;2023-05-14T03:46:02;100058.03;;;7.30;65.79
76794;BME280;65745;50.278;18.192;2023-05-14T03:48:34;100060.71;;;7.23;65.79
76794;BME280;65745;50.278;18.192;2023-05-14T03:51:07;100058.66;;;7.13;66.57
76794;BME280;65745;50.278;18.192;2023-05-14T03:53:39;100059.92;;;7.06;66.39
76794;BME280;65745;50.278;18.192;2023-05-14T03:56:11;100059.35;;;6.99;66.03
76794;BME280;65745;50.278;18.192;2023-05-14T03:58:45;100060.66;;;6.93;66.82
76794;BME280;65745;50.278;18.192;2023-05-14T04:01:18;100061.98;;;6.88;66.58
76794;BME280;65745;50.278;18.192;2023-05-14T04:03:50;100061.55;;;6.90;67.13
76794;BME280;65745;50.278;18.192;2023-05-14T04:06:25;100066.06;;;6.92;68.06
76794;BME280;65745;50.278;18.192;2023-05-14T04:08:57;100065.21;;;7.05;67.75
76794;BME280;65745;50.278;18.192;2023-05-14T04:11:29;100060.17;;;7.17;67.64
76794;BME280;65745;50.278;18.192;2023-05-14T04:14:02;100060.40;;;7.24;67.14
76794;BME280;65745;50.278;18.192;2023-05-14T04:16:35;100056.84;;;7.35;66.78
76794;BME280;65745;50.278;18.192;2023-05-14T04:19:07;100049.99;;;7.45;66.61
76794;BME280;65745;50.278;18.192;2023-05-14T04:21:39;100046.45;;;7.51;66.74
76794;BME280;65745;50.278;18.192;2023-05-14T04:24:11;100046.70;;;7.58;67.25
76794;BME280;65745;50.278;18.192;2023-05-14T04:26:43;100042.35;;;7.66;68.90
76794;BME280;65745;50.278;18.192;2023-05-14T04:29:15;100043.05;;;7.72;68.39
76794;BME280;65745;50.278;18.192;2023-05-14T04:31:48;100035.75;;;7.80;68.58
76794;BME280;65745;50.278;18.192;2023-05-14T04:34:20;100036.38;;;7.93;67.77
76794;BME280;65745;50.278;18.192;2023-05-14T04:36:52;100041.30;;;8.07;67.73
76794;BME280;65745;50.278;18.192;2023-05-14T04:39:25;100043.92;;;8.20;69.63
76794;BME280;65745;50.278;18.192;2023-05-14T04:41:57;100040.85;;;8.31;68.13
76794;BME280;65745;50.278;18.192;2023-05-14T04:44:29;100044.38;;;8.44;67.93
76794;BME280;65745;50.278;18.192;2023-05-14T04:47:01;100046.06;;;8.60;67.99
76794;BME280;65745;50.278;18.192;2023-05-14T04:49:34;100045.90;;;8.72;67.86
76794;BME280;65745;50.278;18.192;2023-05-14T04:52:06;100042.33;;;8.85;67.90
76794;BME280;65745;50.278;18.192;2023-05-14T04:54:38;100041.70;;;8.99;67.58
76794;BME280;65745;50.278;18.192;2023-05-14T04:57:10;100039.59;;;9.09;67.35
76794;BME280;65745;50.278;18.192;2023-05-14T04:59:43;100039.14;;;9.24;67.07
76794;BME280;65745;50.278;18.192;2023-05-14T05:02:15;100037.20;;;9.35;67.13
76794;BME280;65745;50.278;18.192;2023-05-14T05:04:47;100033.89;;;9.46;66.73
76794;BME280;65745;50.278;18.192;2023-05-14T05:07:19;100043.65;;;9.51;67.05
76794;BME280;65745;50.278;18.192;2023-05-14T05:09:51;100043.38;;;9.54;66.65
76794;BME280;65745;50.278;18.192;2023-05-14T05:12:23;100042.27;;;9.57;66.77
76794;BME280;65745;50.278;18.192;2023-05-14T05:14:59;100040.60;;;9.66;66.46
76794;BME280;65745;50.278;18.192;2023-05-14T05:17:32;100033.77;;;9.74;66.49
76794;BME280;65745;50.278;18.192;2023-05-14T05:20:05;100027.98;;;9.84;66.76
76794;BME280;65745;50.278;18.192;2023-05-14T05:22:39;100030.80;;;9.93;66.70
76794;BME280;65745;50.278;18.192;2023-05-14T05:25:11;100029.86;;;9.97;66.80
76794;BME280;65745;50.278;18.192;2023-05-14T05:27:43;100030.02;;;10.11;66.49
76794;BME280;65745;50.278;18.192;2023-05-14T05:30:16;100033.33;;;10.25;66.99
76794;BME280;65745;50.278;18.192;2023-05-14T05:32:49;100036.59;;;10.33;66.80
76794;BME280;65745;50.278;18.192;2023-05-14T05:35:21;100038.08;;;10.30;67.57
76794;BME280;65745;50.278;18.192;2023-05-14T05:37:53;100034.81;;;10.38;67.41
76794;BME280;65745;50.278;18.192;2023-05-14T05:40:25;100034.31;;;10.54;67.18
76794;BME280;65745;50.278;18.192;2023-05-14T05:42:57;100037.42;;;10.62;66.59
76794;BME280;65745;50.278;18.192;2023-05-14T05:45:30;100040.45;;;10.67;66.63
76794;BME280;65745;50.278;18.192;2023-05-14T05:48:02;100045.52;;;10.62;67.16
76794;BME280;65745;50.278;18.192;2023-05-14T05:50:34;100044.69;;;10.63;67.55
76794;BME280;65745;50.278;18.192;2023-05-14T05:53:06;100040.71;;;10.79;67.28
76794;BME280;65745;50.278;18.192;2023-05-14T05:55:39;100039.49;;;10.94;66.90
76794;BME280;65745;50.278;18.192;2023-05-14T05:58:11;100039.27;;;11.08;66.78
76794;BME280;65745;50.278;18.192;2023-05-14T06:00:45;100038.60;;;11.19;66.43
76794;BME280;65745;50.278;18.192;2023-05-14T06:03:17;100039.42;;;11.25;66.35
76794;BME280;65745;50.278;18.192;2023-05-14T06:05:50;100036.80;;;11.32;66.33
76794;BME280;65745;50.278;18.192;2023-05-14T06:08:22;100033.01;;;11.41;66.90
76794;BME280;65745;50.278;18.192;2023-05-14T06:11:01;100031.91;;;11.48;66.82
76794;BME280;65745;50.278;18.192;2023-05-14T06:13:33;100026.23;;;11.58;65.85
76794;BME280;65745;50.278;18.192;2023-05-14T06:16:06;100018.84;;;11.69;66.23
76794;BME280;65745;50.278;18.192;2023-05-14T06:18:39;100017.86;;;11.81;66.07
76794;BME280;65745;50.278;18.192;2023-05-14T06:21:11;100016.75;;;11.98;65.85
76794;BME280;65745;50.278;18.192;2023-05-14T06:23:43;100019.65;;;12.17;65.38
76794;BME280;65745;50.278;18.192;2023-05-14T06:26:15;100012.52;;;12.37;65.43
76794;BME280;65745;50.278;18.192;2023-05-14T06:28:50;100007.87;;;12.62;65.51
76794;BME280;65745;50.278;18.192;2023-05-14T06:31:22;100009.92;;;12.89;64.84
76794;BME280;65745;50.278;18.192;2023-05-14T06:33:54;100003.63;;;13.10;64.77
76794;BME280;65745;50.278;18.192;2023-05-14T06:36:26;100004.97;;;13.37;64.21
76794;BME280;65745;50.278;18.192;2023-05-14T06:38:58;100003.81;;;13.60;63.79
76794;BME280;65745;50.278;18.192;2023-05-14T06:41:31;100007.77;;;13.75;63.31
76794;BME280;65745;50.278;18.192;2023-05-14T06:44:03;100008.88;;;13.83;63.09
76794;BME280;65745;50.278;18.192;2023-05-14T06:46:36;100010.23;;;14.01;62.76
76794;BME280;65745;50.278;18.192;2023-05-14T06:49:08;100012.11;;;14.21;62.55
76794;BME280;65745;50.278;18.192;2023-05-14T06:51:40;100011.73;;;14.39;62.18
76794;BME280;65745;50.278;18.192;2023-05-14T06:54:12;100012.55;;;14.58;61.87
76794;BME280;65745;50.278;18.192;2023-05-14T06:56:45;100009.33;;;14.74;61.77
76794;BME280;65745;50.278;18.192;2023-05-14T06:59:17;100003.85;;;14.87;61.04
76794;BME280;65745;50.278;18.192;2023-05-14T07:01:49;100000.42;;;14.99;61.08
76794;BME280;65745;50.278;18.192;2023-05-14T07:04:21;99998.92;;;15.18;60.99
76794;BME280;65745;50.278;18.192;2023-05-14T07:06:54;99996.89;;;15.39;60.29
76794;BME280;65745;50.278;18.192;2023-05-14T07:09:26;99996.24;;;15.55;60.18
76794;BME280;65745;50.278;18.192;2023-05-14T07:11:59;99999.58;;;15.76;60.46
76794;BME280;65745;50.278;18.192;2023-05-14T07:14:31;99995.75;;;15.98;59.95
76794;BME280;65745;50.278;18.192;2023-05-14T07:17:04;99991.39;;;16.06;58.98
76794;BME280;65745;50.278;18.192;2023-05-14T07:19:36;99993.13;;;16.07;59.19
76794;BME280;65745;50.278;18.192;2023-05-14T07:22:08;99996.44;;;16.11;58.98
76794;BME280;65745;50.278;18.192;2023-05-14T07:24:41;100000.61;;;16.08;59.12
76794;BME280;65745;50.278;18.192;2023-05-14T07:27:13;100001.30;;;15.98;58.93
76794;BME280;65745;50.278;18.192;2023-05-14T07:29:46;100000.96;;;15.80;59.12
76794;BME280;65745;50.278;18.192;2023-05-14T07:32:19;99998.86;;;15.66;59.58
76794;BME280;65745;50.278;18.192;2023-05-14T07:34:51;99993.83;;;15.62;59.69
76794;BME280;65745;50.278;18.192;2023-05-14T07:37:23;100000.27;;;15.76;59.78
76794;BME280;65745;50.278;18.192;2023-05-14T07:39:56;99999.91;;;15.80;59.18
76794;BME280;65745;50.278;18.192;2023-05-14T07:42:29;100001.30;;;15.79;59.38
76794;BME280;65745;50.278;18.192;2023-05-14T07:45:09;100006.34;;;15.74;59.13
76794;BME280;65745;50.278;18.192;2023-05-14T07:47:41;100001.48;;;15.86;59.34
76794;BME280;65745;50.278;18.192;2023-05-14T07:50:13;100000.62;;;16.00;59.23
76794;BME280;65745;50.278;18.192;2023-05-14T07:52:46;99997.13;;;16.17;58.58
76794;BME280;65745;50.278;18.192;2023-05-14T07:55:18;99985.45;;;16.30;58.48
76794;BME280;65745;50.278;18.192;2023-05-14T07:57:50;99980.36;;;16.55;57.80
76794;BME280;65745;50.278;18.192;2023-05-14T08:00:22;99975.64;;;16.71;57.69
76794;BME280;65745;50.278;18.192;2023-05-14T08:02:55;99970.36;;;16.85;57.76
76794;BME280;65745;50.278;18.192;2023-05-14T08:05:27;99956.89;;;17.01;57.22
76794;BME280;65745;50.278;18.192;2023-05-14T08:08:00;99954.13;;;17.24;57.19
76794;BME280;65745;50.278;18.192;2023-05-14T08:10:32;99950.72;;;17.40;56.49
76794;BME280;65745;50.278;18.192;2023-05-14T08:13:04;99948.68;;;17.58;55.69
76794;BME280;65745;50.278;18.192;2023-05-14T08:15:36;99946.17;;;17.91;54.50
76794;BME280;65745;50.278;18.192;2023-05-14T08:18:08;99943.70;;;18.13;54.27
76794;BME280;65745;50.278;18.192;2023-05-14T08:20:41;99934.04;;;18.34;53.72
76794;BME280;65745;50.278;18.192;2023-05-14T08:23:13;99932.86;;;18.62;53.99
76794;BME280;65745;50.278;18.192;2023-05-14T08:25:45;99930.25;;;18.90;52.79
76794;BME280;65745;50.278;18.192;2023-05-14T08:28:17;99928.14;;;19.16;51.67
76794;BME280;65745;50.278;18.192;2023-05-14T08:30:49;99925.45;;;19.08;49.22
76794;BME280;65745;50.278;18.192;2023-05-14T08:33:21;99924.21;;;18.97;48.93
76794;BME280;65745;50.278;18.192;2023-05-14T08:35:54;99923.48;;;19.00;48.54
76794;BME280;65745;50.278;18.192;2023-05-14T08:38:28;99921.96;;;19.08;48.40
76794;BME280;65745;50.278;18.192;2023-05-14T08:41:00;99919.38;;;19.18;47.90
76794;BME280;65745;50.278;18.192;2023-05-14T08:43:40;99915.33;;;19.20;47.63
76794;BME280;65745;50.278;18.192;2023-05-14T08:46:14;99915.20;;;19.40;47.29
76794;BME280;65745;50.278;18.192;2023-05-14T08:48:51;99910.23;;;19.58;46.58
76794;BME280;65745;50.278;18.192;2023-05-14T08:51:28;99907.36;;;19.62;45.60
76794;BME280;65745;50.278;18.192;2023-05-14T08:54:03;99902.02;;;19.68;46.14
76794;BME280;65745;50.278;18.192;2023-05-14T08:56:37;99900.97;;;19.77;45.43
76794;BME280;65745;50.278;18.192;2023-05-14T08:59:09;99896.16;;;19.83;45.06
76794;BME280;65745;50.278;18.192;2023-05-14T09:01:45;99894.34;;;19.86;44.92
76794;BME280;65745;50.278;18.192;2023-05-14T09:04:21;99892.30;;;20.02;45.99
76794;BME280;65745;50.278;18.192;2023-05-14T09:06:54;99889.10;;;20.24;45.53
76794;BME280;65745;50.278;18.192;2023-05-14T09:09:27;99888.65;;;20.29;44.70
76794;BME280;65745;50.278;18.192;2023-05-14T09:11:59;99885.25;;;20.42;44.26
76794;BME280;65745;50.278;18.192;2023-05-14T09:14:32;99886.55;;;20.55;43.42
76794;BME280;65745;50.278;18.192;2023-05-14T09:17:05;99890.77;;;20.63;43.35
76794;BME280;65745;50.278;18.192;2023-05-14T09:19:39;99888.46;;;20.64;43.15
76794;BME280;65745;50.278;18.192;2023-05-14T09:22:13;99888.73;;;20.76;43.15
76794;BME280;65745;50.278;18.192;2023-05-14T09:24:46;99883.02;;;20.81;42.84
76794;BME280;65745;50.278;18.192;2023-05-14T09:27:32;99880.39;;;21.04;43.34
76794;BME280;65745;50.278;18.192;2023-05-14T09:30:10;99880.16;;;21.15;42.67
76794;BME280;65745;50.278;18.192;2023-05-14T09:32:43;99881.19;;;21.32;43.43
76794;BME280;65745;50.278;18.192;2023-05-14T09:35:20;99876.09;;;21.53;42.33
76794;BME280;65745;50.278;18.192;2023-05-14T09:37:53;99876.29;;;21.80;41.89
76794;BME280;65745;50.278;18.192;2023-05-14T09:40:26;99872.71;;;22.03;41.73
76794;BME280;65745;50.278;18.192;2023-05-14T09:42:59;99871.34;;;22.39;41.78
76794;BME280;65745;50.278;18.192;2023-05-14T09:45:31;99866.21;;;22.82;41.14
76794;BME280;65745;50.278;18.192;2023-05-14T09:48:06;99868.42;;;23.08;40.04
76794;BME280;65745;50.278;18.192;2023-05-14T09:50:44;99866.27;;;23.09;39.24
76794;BME280;65745;50.278;18.192;2023-05-14T09:53:17;99862.62;;;22.91;38.65
76794;BME280;65745;50.278;18.192;2023-05-14T09:55:49;99851.77;;;22.95;39.23
76794;BME280;65745;50.278;18.192;2023-05-14T09:58:21;99852.68;;;23.05;38.78
76794;BME280;65745;50.278;18.192;2023-05-14T10:00:54;99853.23;;;22.88;38.80
76794;BME280;65745;50.278;18.192;2023-05-14T10:03:30;99847.59;;;22.88;39.00
76794;BME280;65745;50.278;18.192;2023-05-14T10:06:05;99846.46;;;22.85;38.64
76794;BME280;65745;50.278;18.192;2023-05-14T10:08:42;99840.52;;;22.60;38.54
76794;BME280;65745;50.278;18.192;2023-05-14T10:11:17;99830.02;;;22.41;37.33
76794;BME280;65745;50.278;18.192;2023-05-14T10:13:58;99828.70;;;22.56;38.46
76794;BME280;65745;50.278;18.192;2023-05-14T10:16:36;99829.67;;;22.83;37.75
76794;BME280;65745;50.278;18.192;2023-05-14T10:19:10;99825.91;;;23.07;38.51
76794;BME280;65745;50.278;18.192;2023-05-14T10:21:47;99822.53;;;23.56;38.29
76794;BME280;65745;50.278;18.192;2023-05-14T10:24:20;99817.00;;;23.93;37.18
76794;BME280;65745;50.278;18.192;2023-05-14T10:26:54;99815.90;;;23.94;36.53
76794;BME280;65745;50.278;18.192;2023-05-14T10:29:34;99810.21;;;24.11;36.34
76794;BME280;65745;50.278;18.192;2023-05-14T10:32:08;99808.80;;;24.39;36.09
76794;BME280;65745;50.278;18.192;2023-05-14T10:34:43;99808.81;;;24.39;35.94
76794;BME280;65745;50.278;18.192;2023-05-14T10:37:17;99802.87;;;24.38;35.55
76794;BME280;65745;50.278;18.192;2023-05-14T10:39:52;99805.31;;;24.43;36.26
76794;BME280;65745;50.278;18.192;2023-05-14T10:42:26;99799.89;;;24.51;35.79
76794;BME280;65745;50.278;18.192;2023-05-14T10:45:01;99793.36;;;24.65;35.41
76794;BME280;65745;50.278;18.192;2023-05-14T10:47:40;99790.41;;;24.73;35.85
76794;BME280;65745;50.278;18.192;2023-05-14T10:50:14;99792.39;;;24.80;35.71
76794;BME280;65745;50.278;18.192;2023-05-14T10:52:47;99791.38;;;24.93;35.45
76794;BME280;65745;50.278;18.192;2023-05-14T10:55:21;99794.38;;;24.97;35.35
76794;BME280;65745;50.278;18.192;2023-05-14T10:57:53;99793.95;;;24.94;34.89
76794;BME280;65745;50.278;18.192;2023-05-14T11:00:33;99793.92;;;25.21;35.35
76794;BME280;65745;50.278;18.192;2023-05-14T11:03:06;99800.59;;;25.14;34.94
76794;BME280;65745;50.278;18.192;2023-05-14T11:05:41;99800.95;;;24.73;34.86
76794;BME280;65745;50.278;18.192;2023-05-14T11:08:14;99792.82;;;24.34;35.10
76794;BME280;65745;50.278;18.192;2023-05-14T11:10:47;99788.98;;;24.13;35.34
76794;BME280;65745;50.278;18.192;2023-05-14T11:13:20;99782.08;;;24.09;35.86
76794;BME280;65745;50.278;18.192;2023-05-14T11:15:52;99777.25;;;24.31;35.65
76794;BME280;65745;50.278;18.192;2023-05-14T11:18:29;99774.15;;;24.34;35.64
76794;BME280;65745;50.278;18.192;2023-05-14T11:21:03;99781.56;;;24.56;34.87
76794;BME280;65745;50.278;18.192;2023-05-14T11:23:36;99780.69;;;24.51;34.91
76794;BME280;65745;50.278;18.192;2023-05-14T11:26:08;99776.30;;;24.37;34.76
76794;BME280;65745;50.278;18.192;2023-05-14T11:28:40;99773.14;;;24.18;35.25
76794;BME280;65745;50.278;18.192;2023-05-14T11:31:13;99770.79;;;24.06;35.32
76794;BME280;65745;50.278;18.192;2023-05-14T11:33:45;99773.78;;;23.72;35.15
76794;BME280;65745;50.278;18.192;2023-05-14T11:36:17;99769.41;;;23.46;36.12
76794;BME280;65745;50.278;18.192;2023-05-14T11:38:50;99767.85;;;23.24;36.10
76794;BME280;65745;50.278;18.192;2023-05-14T11:41:22;99768.37;;;22.94;36.28
76794;BME280;65745;50.278;18.192;2023-05-14T11:43:56;99762.65;;;22.74;36.22
76794;BME280;65745;50.278;18.192;2023-05-14T11:46:29;99764.11;;;22.50;36.72
76794;BME280;65745;50.278;18.192;2023-05-14T11:49:04;99760.92;;;22.04;36.85
76794;BME280;65745;50.278;18.192;2023-05-14T11:51:36;99758.18;;;21.89;37.24
76794;BME280;65745;50.278;18.192;2023-05-14T11:54:08;99756.63;;;21.62;37.46
76794;BME280;65745;50.278;18.192;2023-05-14T11:56:40;99755.11;;;21.48;37.77
76794;BME280;65745;50.278;18.192;2023-05-14T11:59:13;99746.40;;;21.46;38.34
76794;BME280;65745;50.278;18.192;2023-05-14T12:01:45;99744.25;;;21.47;38.37
76794;BME280;65745;50.278;18.192;2023-05-14T12:04:21;99744.27;;;21.41;38.44
76794;BME280;65745;50.278;18.192;2023-05-14T12:06:53;99742.73;;;21.39;38.50
76794;BME280;65745;50.278;18.192;2023-05-14T12:09:28;99742.33;;;21.28;38.90
76794;BME280;65745;50.278;18.192;2023-05-14T12:12:09;99742.22;;;21.32;37.98
76794;BME280;65745;50.278;18.192;2023-05-14T12:14:43;99740.30;;;21.25;38.47
76794;BME280;65745;50.278;18.192;2023-05-14T12:17:17;99735.54;;;21.33;38.73
76794;BME280;65745;50.278;18.192;2023-05-14T12:19:50;99733.20;;;21.35;37.93
76794;BME280;65745;50.278;18.192;2023-05-14T12:22:24;99735.54;;;21.33;38.46
76794;BME280;65745;50.278;18.192;2023-05-14T12:24:58;99734.83;;;21.33;37.99
76794;BME280;65745;50.278;18.192;2023-05-14T12:27:31;99732.48;;;21.36;37.61
76794;BME280;65745;50.278;18.192;2023-05-14T12:30:05;99729.21;;;21.47;37.77
76794;BME280;65745;50.278;18.192;2023-05-14T12:32:41;99721.25;;;21.55;37.86
76794;BME280;65745;50.278;18.192;2023-05-14T12:35:13;99713.27;;;21.58;37.95
76794;BME280;65745;50.278;18.192;2023-05-14T12:37:46;99714.36;;;21.51;38.22
76794;BME280;65745;50.278;18.192;2023-05-14T12:40:19;99706.89;;;21.49;38.17
76794;BME280;65745;50.278;18.192;2023-05-14T12:42:52;99711.52;;;21.52;38.03
76794;BME280;65745;50.278;18.192;2023-05-14T12:45:27;99708.25;;;21.56;38.06
76794;BME280;65745;50.278;18.192;2023-05-14T12:47:59;99708.30;;;21.61;38.44
76794;BME280;65745;50.278;18.192;2023-05-14T12:50:34;99707.95;;;21.61;38.23
76794;BME280;65745;50.278;18.192;2023-05-14T12:53:07;99706.33;;;21.56;37.86
76794;BME280;65745;50.278;18.192;2023-05-14T12:55:41;99702.61;;;21.44;37.85
76794;BME280;65745;50.278;18.192;2023-05-14T12:58:14;99702.35;;;21.35;38.07
76794;BME280;65745;50.278;18.192;2023-05-14T13:00:46;99698.61;;;21.31;38.30
76794;BME280;65745;50.278;18.192;2023-05-14T13:03:18;99702.40;;;21.21;37.91
76794;BME280;65745;50.278;18.192;2023-05-14T13:05:51;99693.49;;;21.05;38.19
76794;BME280;65745;50.278;18.192;2023-05-14T13:08:24;99690.63;;;21.01;37.83
76794;BME280;65745;50.278;18.192;2023-05-14T13:10:56;99691.77;;;20.98;38.03
76794;BME280;65745;50.278;18.192;2023-05-14T13:13:29;99690.41;;;20.96;38.17
76794;BME280;65745;50.278;18.192;2023-05-14T13:16:02;99684.89;;;20.93;38.17
76794;BME280;65745;50.278;18.192;2023-05-14T13:18:34;99683.83;;;20.94;38.40